sensor_id;sensor_type;location;lat;lon;timestamp;temperature;humidity
52203;DHT22;38173;52.850;6.970;2022-08-19T00:01:32;14.80;99.90
52203;DHT22;38173;52.850;6.970;2022-08-19T00:03:59;14.70;99.90
52203;DHT22;38173;52.850;6.970;2022-08-19T00:06:27;14.70;99.90
52203;DHT22;38173;52.850;6.970;2022-08-19T00:08:54;14.80;99.90
52203;DHT22;38173;52.850;6.970;2022-08-19T00:11:20;14.80;99.90
52203;DHT22;38173;52.850;6.970;2022-08-19T00:13:46;14.80;99.90
52203;DHT22;38173;52.850;6.970;2022-08-19T00:16:14;14.80;99.90
52203;DHT22;38173;52.850;6.970;2022-08-19T00:18:40;14.80;99.90
52203;DHT22;38173;52.850;6.970;2022-08-19T00:21:06;14.70;99.90
52203;DHT22;38173;52.850;6.970;2022-08-19T00:23:34;14.70;99.90
52203;DHT22;38173;52.850;6.970;2022-08-19T00:26:03;14.60;99.90
52203;DHT22;38173;52.850;6.970;2022-08-19T00:28:29;14.50;99.90
52203;DHT22;38173;52.850;6.970;2022-08-19T00:30:56;14.40;99.90
52203;DHT22;38173;52.850;6.970;2022-08-19T00:33:21;14.40;99.90
52203;DHT22;38173;52.850;6.970;2022-08-19T00:35:47;14.40;99.90
52203;DHT22;38173;52.850;6.970;2022-08-19T00:38:13;14.40;99.90
52203;DHT22;38173;52.850;6.970;2022-08-19T00:40:41;14.40;99.90
52203;DHT22;38173;52.850;6.970;2022-08-19T00:43:09;14.40;99.90
52203;DHT22;38173;52.850;6.970;2022-08-19T00:45:36;14.40;99.90
52203;DHT22;38173;52.850;6.970;2022-08-19T00:48:02;14.40;99.90
52203;DHT22;38173;52.850;6.970;2022-08-19T00:50:31;14.40;99.90
52203;DHT22;38173;52.850;6.970;2022-08-19T00:52:58;14.40;99.90
52203;DHT22;38173;52.850;6.970;2022-08-19T00:55:26;14.40;99.90
52203;DHT22;38173;52.850;6.970;2022-08-19T00:58:07;14.30;99.90
52203;DHT22;38173;52.850;6.970;2022-08-19T01:00:36;14.20;99.90
52203;DHT22;38173;52.850;6.970;2022-08-19T01:03:08;14.20;99.90
52203;DHT22;38173;52.850;6.970;2022-08-19T01:05:36;14.20;99.90
52203;DHT22;38173;52.850;6.970;2022-08-19T01:08:05;14.10;99.90
52203;DHT22;38173;52.850;6.970;2022-08-19T01:10:35;14.10;99.90
52203;DHT22;38173;52.850;6.970;2022-08-19T01:13:03;14.10;99.90
52203;DHT22;38173;52.850;6.970;2022-08-19T01:15:32;14.10;99.90
52203;DHT22;38173;52.850;6.970;2022-08-19T01:18:06;14.10;99.90
52203;DHT22;38173;52.850;6.970;2022-08-19T01:20:32;14.00;99.90
52203;DHT22;38173;52.850;6.970;2022-08-19T01:23:00;14.00;99.90
52203;DHT22;38173;52.850;6.970;2022-08-19T01:25:38;13.90;99.90
52203;DHT22;38173;52.850;6.970;2022-08-19T01:28:04;13.90;99.90
52203;DHT22;38173;52.850;6.970;2022-08-19T01:30:32;13.90;99.90
52203;DHT22;38173;52.850;6.970;2022-08-19T01:32:59;14.00;99.90
52203;DHT22;38173;52.850;6.970;2022-08-19T01:35:28;14.00;99.90
52203;DHT22;38173;52.850;6.970;2022-08-19T01:38:00;14.00;99.90
52203;DHT22;38173;52.850;6.970;2022-08-19T01:40:30;14.00;99.90
52203;DHT22;38173;52.850;6.970;2022-08-19T01:42:57;13.90;99.90
52203;DHT22;38173;52.850;6.970;2022-08-19T01:45:25;13.90;99.90
52203;DHT22;38173;52.850;6.970;2022-08-19T01:47:51;13.90;99.90
52203;DHT22;38173;52.850;6.970;2022-08-19T01:50:17;13.80;99.90
52203;DHT22;38173;52.850;6.970;2022-08-19T01:52:43;13.80;99.90
52203;DHT22;38173;52.850;6.970;2022-08-19T01:55:19;13.80;99.90
52203;DHT22;38173;52.850;6.970;2022-08-19T01:57:49;13.80;99.90
52203;DHT22;38173;52.850;6.970;2022-08-19T02:00:17;13.80;99.90
52203;DHT22;38173;52.850;6.970;2022-08-19T02:02:43;13.80;99.90
52203;DHT22;38173;52.850;6.970;2022-08-19T02:05:10;13.80;99.90
52203;DHT22;38173;52.850;6.970;2022-08-19T02:07:38;13.80;99.90
52203;DHT22;38173;52.850;6.970;2022-08-19T02:10:08;13.80;99.90
52203;DHT22;38173;52.850;6.970;2022-08-19T02:12:34;13.80;99.90
52203;DHT22;38173;52.850;6.970;2022-08-19T02:15:01;13.80;99.90
52203;DHT22;38173;52.850;6.970;2022-08-19T02:17:28;13.70;99.90
52203;DHT22;38173;52.850;6.970;2022-08-19T02:19:55;13.70;99.90
52203;DHT22;38173;52.850;6.970;2022-08-19T02:22:21;13.60;99.90
52203;DHT22;38173;52.850;6.970;2022-08-19T02:24:46;13.60;99.90
52203;DHT22;38173;52.850;6.970;2022-08-19T02:27:14;13.50;99.90
52203;DHT22;38173;52.850;6.970;2022-08-19T02:29:40;13.40;99.90
52203;DHT22;38173;52.850;6.970;2022-08-19T02:32:06;13.40;99.90
52203;DHT22;38173;52.850;6.970;2022-08-19T02:34:33;13.30;99.90
52203;DHT22;38173;52.850;6.970;2022-08-19T02:36:59;13.30;99.90
52203;DHT22;38173;52.850;6.970;2022-08-19T02:39:24;13.40;99.90
52203;DHT22;38173;52.850;6.970;2022-08-19T02:41:51;13.40;99.90
52203;DHT22;38173;52.850;6.970;2022-08-19T02:44:17;13.30;99.90
52203;DHT22;38173;52.850;6.970;2022-08-19T02:46:46;13.20;99.90
52203;DHT22;38173;52.850;6.970;2022-08-19T02:49:12;13.20;99.90
52203;DHT22;38173;52.850;6.970;2022-08-19T02:51:43;13.20;99.90
52203;DHT22;38173;52.850;6.970;2022-08-19T02:54:11;13.10;99.90
52203;DHT22;38173;52.850;6.970;2022-08-19T02:56:40;13.10;99.90
52203;DHT22;38173;52.850;6.970;2022-08-19T02:59:06;13.10;99.90
52203;DHT22;38173;52.850;6.970;2022-08-19T03:01:34;13.00;99.90
52203;DHT22;38173;52.850;6.970;2022-08-19T03:04:04;13.00;99.90
52203;DHT22;38173;52.850;6.970;2022-08-19T03:06:31;13.00;99.90
52203;DHT22;38173;52.850;6.970;2022-08-19T03:08:57;13.00;99.90
52203;DHT22;38173;52.850;6.970;2022-08-19T03:11:26;13.00;99.90
52203;DHT22;38173;52.850;6.970;2022-08-19T03:13:53;13.00;99.90
52203;DHT22;38173;52.850;6.970;2022-08-19T03:16:21;13.00;99.90
52203;DHT22;38173;52.850;6.970;2022-08-19T03:18:48;13.00;99.90
52203;DHT22;38173;52.850;6.970;2022-08-19T03:21:19;12.90;99.90
52203;DHT22;38173;52.850;6.970;2022-08-19T03:23:45;12.90;99.90
52203;DHT22;38173;52.850;6.970;2022-08-19T03:26:11;12.80;99.90
52203;DHT22;38173;52.850;6.970;2022-08-19T03:28:38;12.90;99.90
52203;DHT22;38173;52.850;6.970;2022-08-19T03:31:12;12.90;99.90
52203;DHT22;38173;52.850;6.970;2022-08-19T03:33:38;12.80;99.90
52203;DHT22;38173;52.850;6.970;2022-08-19T03:36:13;12.80;99.90
52203;DHT22;38173;52.850;6.970;2022-08-19T03:38:43;12.80;99.90
52203;DHT22;38173;52.850;6.970;2022-08-19T03:41:14;12.80;99.90
52203;DHT22;38173;52.850;6.970;2022-08-19T03:43:42;12.80;99.90
52203;DHT22;38173;52.850;6.970;2022-08-19T03:46:13;12.70;99.90
52203;DHT22;38173;52.850;6.970;2022-08-19T03:48:41;12.70;99.90
52203;DHT22;38173;52.850;6.970;2022-08-19T03:51:14;12.70;99.90
52203;DHT22;38173;52.850;6.970;2022-08-19T03:53:40;12.70;99.90
52203;DHT22;38173;52.850;6.970;2022-08-19T03:56:09;12.70;99.90
52203;DHT22;38173;52.850;6.970;2022-08-19T03:58:35;12.60;99.90
52203;DHT22;38173;52.850;6.970;2022-08-19T04:01:01;12.60;99.90
52203;DHT22;38173;52.850;6.970;2022-08-19T04:03:26;12.60;99.90
52203;DHT22;38173;52.850;6.970;2022-08-19T04:05:53;12.60;99.90
52203;DHT22;38173;52.850;6.970;2022-08-19T04:08:20;12.50;99.90
52203;DHT22;38173;52.850;6.970;2022-08-19T04:10:48;12.50;99.90
52203;DHT22;38173;52.850;6.970;2022-08-19T04:13:16;12.60;99.90
52203;DHT22;38173;52.850;6.970;2022-08-19T04:15:44;12.60;99.90
52203;DHT22;38173;52.850;6.970;2022-08-19T04:18:10;12.60;99.90
52203;DHT22;38173;52.850;6.970;2022-08-19T04:20:44;12.60;99.90
52203;DHT22;38173;52.850;6.970;2022-08-19T04:23:11;12.70;99.90
52203;DHT22;38173;52.850;6.970;2022-08-19T04:25:39;12.60;99.90
52203;DHT22;38173;52.850;6.970;2022-08-19T04:28:08;12.60;99.90
52203;DHT22;38173;52.850;6.970;2022-08-19T04:30:43;12.60;99.90
52203;DHT22;38173;52.850;6.970;2022-08-19T04:33:10;12.60;99.90
52203;DHT22;38173;52.850;6.970;2022-08-19T04:35:42;12.60;99.90
52203;DHT22;38173;52.850;6.970;2022-08-19T04:38:08;12.60;99.90
52203;DHT22;38173;52.850;6.970;2022-08-19T04:40:41;12.60;99.90
52203;DHT22;38173;52.850;6.970;2022-08-19T04:43:26;12.60;99.90
52203;DHT22;38173;52.850;6.970;2022-08-19T04:45:53;12.60;99.90
52203;DHT22;38173;52.850;6.970;2022-08-19T04:48:19;12.50;99.90
52203;DHT22;38173;52.850;6.970;2022-08-19T04:50:54;12.60;99.90
52203;DHT22;38173;52.850;6.970;2022-08-19T04:53:27;12.70;99.90
52203;DHT22;38173;52.850;6.970;2022-08-19T04:55:55;12.70;99.90
52203;DHT22;38173;52.850;6.970;2022-08-19T04:58:23;12.90;99.90
52203;DHT22;38173;52.850;6.970;2022-08-19T05:00:49;12.90;99.90
52203;DHT22;38173;52.850;6.970;2022-08-19T05:03:14;13.00;99.90
52203;DHT22;38173;52.850;6.970;2022-08-19T05:05:43;13.10;99.90
52203;DHT22;38173;52.850;6.970;2022-08-19T05:08:10;13.20;99.90
52203;DHT22;38173;52.850;6.970;2022-08-19T05:10:38;13.20;99.90
52203;DHT22;38173;52.850;6.970;2022-08-19T05:13:04;13.30;99.90
52203;DHT22;38173;52.850;6.970;2022-08-19T05:15:30;13.40;99.90
52203;DHT22;38173;52.850;6.970;2022-08-19T05:17:56;13.50;99.90
52203;DHT22;38173;52.850;6.970;2022-08-19T05:20:41;13.60;99.90
52203;DHT22;38173;52.850;6.970;2022-08-19T05:23:25;13.60;99.90
52203;DHT22;38173;52.850;6.970;2022-08-19T05:25:51;13.70;99.90
52203;DHT22;38173;52.850;6.970;2022-08-19T05:28:18;13.70;99.90
52203;DHT22;38173;52.850;6.970;2022-08-19T05:30:45;13.70;99.90
52203;DHT22;38173;52.850;6.970;2022-08-19T05:33:11;13.70;99.90
52203;DHT22;38173;52.850;6.970;2022-08-19T05:35:38;13.60;99.90
52203;DHT22;38173;52.850;6.970;2022-08-19T05:38:05;13.70;99.90
52203;DHT22;38173;52.850;6.970;2022-08-19T05:40:37;13.70;99.90
52203;DHT22;38173;52.850;6.970;2022-08-19T05:43:05;13.70;99.90
52203;DHT22;38173;52.850;6.970;2022-08-19T05:45:31;13.70;99.90
52203;DHT22;38173;52.850;6.970;2022-08-19T05:47:57;13.80;99.90
52203;DHT22;38173;52.850;6.970;2022-08-19T05:50:24;13.80;99.90
52203;DHT22;38173;52.850;6.970;2022-08-19T05:52:54;13.80;99.90
52203;DHT22;38173;52.850;6.970;2022-08-19T05:55:20;13.90;99.90
52203;DHT22;38173;52.850;6.970;2022-08-19T05:57:48;13.90;99.90
52203;DHT22;38173;52.850;6.970;2022-08-19T06:00:15;14.00;99.90
52203;DHT22;38173;52.850;6.970;2022-08-19T06:02:41;14.20;99.90
52203;DHT22;38173;52.850;6.970;2022-08-19T06:05:07;14.30;99.90
52203;DHT22;38173;52.850;6.970;2022-08-19T06:07:35;14.40;99.90
52203;DHT22;38173;52.850;6.970;2022-08-19T06:10:03;14.60;99.90
52203;DHT22;38173;52.850;6.970;2022-08-19T06:12:33;14.70;99.90
52203;DHT22;38173;52.850;6.970;2022-08-19T06:15:13;14.90;99.90
52203;DHT22;38173;52.850;6.970;2022-08-19T06:17:39;15.10;99.90
52203;DHT22;38173;52.850;6.970;2022-08-19T06:20:06;15.20;99.90
52203;DHT22;38173;52.850;6.970;2022-08-19T06:22:37;15.30;99.90
52203;DHT22;38173;52.850;6.970;2022-08-19T06:25:04;15.50;99.90
52203;DHT22;38173;52.850;6.970;2022-08-19T06:27:30;15.50;99.90
52203;DHT22;38173;52.850;6.970;2022-08-19T06:29:57;15.70;99.90
52203;DHT22;38173;52.850;6.970;2022-08-19T06:32:23;15.80;99.90
52203;DHT22;38173;52.850;6.970;2022-08-19T06:34:48;15.90;99.90
52203;DHT22;38173;52.850;6.970;2022-08-19T06:37:14;16.10;99.90
52203;DHT22;38173;52.850;6.970;2022-08-19T06:39:43;16.20;99.90
52203;DHT22;38173;52.850;6.970;2022-08-19T06:42:10;16.30;99.90
52203;DHT22;38173;52.850;6.970;2022-08-19T06:44:38;16.40;99.90
52203;DHT22;38173;52.850;6.970;2022-08-19T06:47:08;16.50;99.90
52203;DHT22;38173;52.850;6.970;2022-08-19T06:49:35;16.60;99.90
52203;DHT22;38173;52.850;6.970;2022-08-19T06:52:01;16.70;99.90
52203;DHT22;38173;52.850;6.970;2022-08-19T06:54:27;16.80;99.90
52203;DHT22;38173;52.850;6.970;2022-08-19T06:56:56;16.90;99.90
52203;DHT22;38173;52.850;6.970;2022-08-19T06:59:24;17.10;99.90
52203;DHT22;38173;52.850;6.970;2022-08-19T07:01:54;17.20;99.90
52203;DHT22;38173;52.850;6.970;2022-08-19T07:04:24;17.30;99.90
52203;DHT22;38173;52.850;6.970;2022-08-19T07:07:00;17.40;99.90
52203;DHT22;38173;52.850;6.970;2022-08-19T07:09:26;17.50;99.90
52203;DHT22;38173;52.850;6.970;2022-08-19T07:11:53;17.70;99.90
52203;DHT22;38173;52.850;6.970;2022-08-19T07:14:21;17.80;99.90
52203;DHT22;38173;52.850;6.970;2022-08-19T07:16:49;18.00;99.90
52203;DHT22;38173;52.850;6.970;2022-08-19T07:19:18;18.10;99.90
52203;DHT22;38173;52.850;6.970;2022-08-19T07:21:46;18.20;99.90
52203;DHT22;38173;52.850;6.970;2022-08-19T07:24:12;18.40;99.90
52203;DHT22;38173;52.850;6.970;2022-08-19T07:26:40;18.50;99.90
52203;DHT22;38173;52.850;6.970;2022-08-19T07:29:07;18.60;99.90
52203;DHT22;38173;52.850;6.970;2022-08-19T07:31:33;18.80;99.90
52203;DHT22;38173;52.850;6.970;2022-08-19T07:34:03;18.90;99.90
52203;DHT22;38173;52.850;6.970;2022-08-19T07:36:34;19.00;99.90
52203;DHT22;38173;52.850;6.970;2022-08-19T07:39:05;19.00;99.90
52203;DHT22;38173;52.850;6.970;2022-08-19T07:41:31;19.20;99.90
52203;DHT22;38173;52.850;6.970;2022-08-19T07:44:00;19.20;99.90
52203;DHT22;38173;52.850;6.970;2022-08-19T07:46:38;19.30;99.90
52203;DHT22;38173;52.850;6.970;2022-08-19T07:49:05;19.30;99.90
52203;DHT22;38173;52.850;6.970;2022-08-19T07:51:31;19.30;99.90
52203;DHT22;38173;52.850;6.970;2022-08-19T07:53:57;19.30;99.90
52203;DHT22;38173;52.850;6.970;2022-08-19T07:56:23;19.40;99.90
52203;DHT22;38173;52.850;6.970;2022-08-19T07:58:51;19.40;99.90
52203;DHT22;38173;52.850;6.970;2022-08-19T08:01:23;19.40;99.90
52203;DHT22;38173;52.850;6.970;2022-08-19T08:03:50;19.50;99.90
52203;DHT22;38173;52.850;6.970;2022-08-19T08:06:35;19.50;99.90
52203;DHT22;38173;52.850;6.970;2022-08-19T08:09:24;19.60;99.90
52203;DHT22;38173;52.850;6.970;2022-08-19T08:11:54;19.60;99.90
52203;DHT22;38173;52.850;6.970;2022-08-19T08:14:24;19.70;99.90
52203;DHT22;38173;52.850;6.970;2022-08-19T08:16:50;19.70;99.90
52203;DHT22;38173;52.850;6.970;2022-08-19T08:19:18;19.80;99.90
52203;DHT22;38173;52.850;6.970;2022-08-19T08:21:45;19.90;99.90
52203;DHT22;38173;52.850;6.970;2022-08-19T08:24:11;20.00;99.90
52203;DHT22;38173;52.850;6.970;2022-08-19T08:26:37;20.10;99.90
52203;DHT22;38173;52.850;6.970;2022-08-19T08:29:04;20.10;99.90
52203;DHT22;38173;52.850;6.970;2022-08-19T08:31:30;20.20;99.90
52203;DHT22;38173;52.850;6.970;2022-08-19T08:33:56;20.30;99.90
52203;DHT22;38173;52.850;6.970;2022-08-19T08:36:22;20.40;99.90
52203;DHT22;38173;52.850;6.970;2022-08-19T08:38:47;20.50;99.90
52203;DHT22;38173;52.850;6.970;2022-08-19T08:41:18;20.60;99.90
52203;DHT22;38173;52.850;6.970;2022-08-19T08:43:49;20.70;99.90
52203;DHT22;38173;52.850;6.970;2022-08-19T08:46:48;20.80;99.90
52203;DHT22;38173;52.850;6.970;2022-08-19T08:52:32;21.10;99.90
52203;DHT22;38173;52.850;6.970;2022-08-19T08:54:54;21.10;99.90
52203;DHT22;38173;52.850;6.970;2022-08-19T08:59:50;21.30;99.90
52203;DHT22;38173;52.850;6.970;2022-08-19T09:02:18;21.30;99.90
52203;DHT22;38173;52.850;6.970;2022-08-19T09:04:44;21.40;99.90
52203;DHT22;38173;52.850;6.970;2022-08-19T09:07:45;21.40;99.90
52203;DHT22;38173;52.850;6.970;2022-08-19T09:16:18;21.50;99.90
52203;DHT22;38173;52.850;6.970;2022-08-19T09:18:55;21.60;99.90
52203;DHT22;38173;52.850;6.970;2022-08-19T09:21:24;21.70;99.90
52203;DHT22;38173;52.850;6.970;2022-08-19T09:23:51;21.70;99.90
52203;DHT22;38173;52.850;6.970;2022-08-19T09:26:20;21.80;99.90
52203;DHT22;38173;52.850;6.970;2022-08-19T09:28:48;21.90;99.90
52203;DHT22;38173;52.850;6.970;2022-08-19T09:31:20;22.00;99.90
52203;DHT22;38173;52.850;6.970;2022-08-19T09:33:46;22.10;99.90
52203;DHT22;38173;52.850;6.970;2022-08-19T09:36:15;22.20;99.90
52203;DHT22;38173;52.850;6.970;2022-08-19T09:38:42;22.20;99.90
52203;DHT22;38173;52.850;6.970;2022-08-19T09:41:11;22.10;99.90
52203;DHT22;38173;52.850;6.970;2022-08-19T09:43:40;22.20;99.90
52203;DHT22;38173;52.850;6.970;2022-08-19T09:46:06;22.30;99.90
52203;DHT22;38173;52.850;6.970;2022-08-19T09:48:33;22.30;99.90
52203;DHT22;38173;52.850;6.970;2022-08-19T09:51:20;22.40;99.90
52203;DHT22;38173;52.850;6.970;2022-08-19T09:53:48;22.40;99.90
52203;DHT22;38173;52.850;6.970;2022-08-19T09:56:21;22.50;99.90
52203;DHT22;38173;52.850;6.970;2022-08-19T09:58:47;22.60;99.90
52203;DHT22;38173;52.850;6.970;2022-08-19T10:01:22;22.60;99.90
52203;DHT22;38173;52.850;6.970;2022-08-19T10:03:50;22.70;99.90
52203;DHT22;38173;52.850;6.970;2022-08-19T10:06:17;22.80;99.90
52203;DHT22;38173;52.850;6.970;2022-08-19T10:08:43;22.80;99.90
52203;DHT22;38173;52.850;6.970;2022-08-19T10:11:09;22.90;99.90
52203;DHT22;38173;52.850;6.970;2022-08-19T10:13:35;22.90;99.90
52203;DHT22;38173;52.850;6.970;2022-08-19T10:16:11;23.00;99.90
52203;DHT22;38173;52.850;6.970;2022-08-19T10:18:38;23.00;99.90
52203;DHT22;38173;52.850;6.970;2022-08-19T10:23:46;23.10;99.90
52203;DHT22;38173;52.850;6.970;2022-08-19T10:26:15;23.10;99.90
52203;DHT22;38173;52.850;6.970;2022-08-19T10:28:41;23.20;99.90
52203;DHT22;38173;52.850;6.970;2022-08-19T10:31:09;23.20;99.90
52203;DHT22;38173;52.850;6.970;2022-08-19T10:33:36;23.20;99.90
52203;DHT22;38173;52.850;6.970;2022-08-19T10:36:04;23.30;99.90
52203;DHT22;38173;52.850;6.970;2022-08-19T10:38:31;23.30;99.90
52203;DHT22;38173;52.850;6.970;2022-08-19T10:40:57;23.40;99.90
52203;DHT22;38173;52.850;6.970;2022-08-19T10:43:23;23.50;99.90
52203;DHT22;38173;52.850;6.970;2022-08-19T10:45:54;23.50;99.90
52203;DHT22;38173;52.850;6.970;2022-08-19T10:48:22;23.60;99.90
52203;DHT22;38173;52.850;6.970;2022-08-19T10:50:47;23.70;99.90
52203;DHT22;38173;52.850;6.970;2022-08-19T10:53:32;23.70;99.90
52203;DHT22;38173;52.850;6.970;2022-08-19T10:55:57;23.80;99.90
52203;DHT22;38173;52.850;6.970;2022-08-19T10:58:42;23.90;99.90
52203;DHT22;38173;52.850;6.970;2022-08-19T11:01:07;24.00;99.90
52203;DHT22;38173;52.850;6.970;2022-08-19T11:03:33;24.10;99.90
52203;DHT22;38173;52.850;6.970;2022-08-19T11:06:03;24.20;99.90
52203;DHT22;38173;52.850;6.970;2022-08-19T11:08:29;24.30;99.90
52203;DHT22;38173;52.850;6.970;2022-08-19T11:10:59;24.40;99.90
52203;DHT22;38173;52.850;6.970;2022-08-19T11:13:28;24.40;99.90
52203;DHT22;38173;52.850;6.970;2022-08-19T11:16:04;24.50;99.90
52203;DHT22;38173;52.850;6.970;2022-08-19T11:18:30;24.70;99.90
52203;DHT22;38173;52.850;6.970;2022-08-19T11:21:27;24.70;99.90
52203;DHT22;38173;52.850;6.970;2022-08-19T11:23:53;24.60;99.90
52203;DHT22;38173;52.850;6.970;2022-08-19T11:26:20;24.60;99.90
52203;DHT22;38173;52.850;6.970;2022-08-19T11:28:46;24.60;99.90
52203;DHT22;38173;52.850;6.970;2022-08-19T11:31:18;24.60;99.90
52203;DHT22;38173;52.850;6.970;2022-08-19T11:33:45;24.60;99.90
52203;DHT22;38173;52.850;6.970;2022-08-19T11:36:12;24.60;99.90
52203;DHT22;38173;52.850;6.970;2022-08-19T11:38:38;24.70;99.90
52203;DHT22;38173;52.850;6.970;2022-08-19T11:41:06;24.80;99.90
52203;DHT22;38173;52.850;6.970;2022-08-19T11:43:33;24.90;99.90
52203;DHT22;38173;52.850;6.970;2022-08-19T11:45:59;24.90;99.90
52203;DHT22;38173;52.850;6.970;2022-08-19T11:48:28;24.90;99.90
52203;DHT22;38173;52.850;6.970;2022-08-19T11:50:54;24.80;99.90
52203;DHT22;38173;52.850;6.970;2022-08-19T11:53:22;24.80;99.90
52203;DHT22;38173;52.850;6.970;2022-08-19T11:55:48;24.80;99.90
52203;DHT22;38173;52.850;6.970;2022-08-19T11:58:15;24.90;99.90
52203;DHT22;38173;52.850;6.970;2022-08-19T12:00:42;25.10;99.90
52203;DHT22;38173;52.850;6.970;2022-08-19T12:03:12;25.10;99.90
52203;DHT22;38173;52.850;6.970;2022-08-19T12:05:39;25.10;99.90
52203;DHT22;38173;52.850;6.970;2022-08-19T12:08:05;24.90;99.90
52203;DHT22;38173;52.850;6.970;2022-08-19T12:10:32;24.80;99.90
52203;DHT22;38173;52.850;6.970;2022-08-19T12:12:58;24.80;99.90
52203;DHT22;38173;52.850;6.970;2022-08-19T12:15:26;24.70;99.90
52203;DHT22;38173;52.850;6.970;2022-08-19T12:17:56;24.60;99.90
52203;DHT22;38173;52.850;6.970;2022-08-19T12:20:23;24.50;99.90
52203;DHT22;38173;52.850;6.970;2022-08-19T12:22:55;24.50;99.90
52203;DHT22;38173;52.850;6.970;2022-08-19T12:25:21;24.50;99.90
52203;DHT22;38173;52.850;6.970;2022-08-19T12:27:47;24.50;99.90
52203;DHT22;38173;52.850;6.970;2022-08-19T12:30:13;24.50;99.90
52203;DHT22;38173;52.850;6.970;2022-08-19T12:32:39;24.60;99.90
52203;DHT22;38173;52.850;6.970;2022-08-19T12:35:06;24.80;99.90
52203;DHT22;38173;52.850;6.970;2022-08-19T12:37:33;25.10;99.90
52203;DHT22;38173;52.850;6.970;2022-08-19T12:39:59;25.30;99.90
52203;DHT22;38173;52.850;6.970;2022-08-19T12:42:25;25.50;99.90
52203;DHT22;38173;52.850;6.970;2022-08-19T12:44:51;25.70;99.90
52203;DHT22;38173;52.850;6.970;2022-08-19T12:47:17;25.80;99.90
52203;DHT22;38173;52.850;6.970;2022-08-19T12:49:43;25.90;99.90
52203;DHT22;38173;52.850;6.970;2022-08-19T12:52:10;25.90;99.90
52203;DHT22;38173;52.850;6.970;2022-08-19T12:54:37;25.80;99.90
52203;DHT22;38173;52.850;6.970;2022-08-19T12:57:07;25.80;99.90
52203;DHT22;38173;52.850;6.970;2022-08-19T12:59:37;26.10;99.90
52203;DHT22;38173;52.850;6.970;2022-08-19T13:02:05;26.70;99.90
52203;DHT22;38173;52.850;6.970;2022-08-19T13:04:32;27.30;99.90
52203;DHT22;38173;52.850;6.970;2022-08-19T13:07:00;27.80;99.90
52203;DHT22;38173;52.850;6.970;2022-08-19T13:09:26;27.70;99.90
52203;DHT22;38173;52.850;6.970;2022-08-19T13:11:52;27.60;99.90
52203;DHT22;38173;52.850;6.970;2022-08-19T13:14:17;27.70;99.90
52203;DHT22;38173;52.850;6.970;2022-08-19T13:16:45;28.00;99.90
52203;DHT22;38173;52.850;6.970;2022-08-19T13:19:11;28.20;99.90
52203;DHT22;38173;52.850;6.970;2022-08-19T13:21:38;28.10;99.90
52203;DHT22;38173;52.850;6.970;2022-08-19T13:24:04;27.90;99.90
52203;DHT22;38173;52.850;6.970;2022-08-19T13:26:30;27.90;99.90
52203;DHT22;38173;52.850;6.970;2022-08-19T13:28:55;27.80;99.90
52203;DHT22;38173;52.850;6.970;2022-08-19T13:31:41;27.70;99.90
52203;DHT22;38173;52.850;6.970;2022-08-19T13:34:29;27.50;99.90
52203;DHT22;38173;52.850;6.970;2022-08-19T13:36:55;27.30;99.90
52203;DHT22;38173;52.850;6.970;2022-08-19T13:39:21;27.10;99.90
52203;DHT22;38173;52.850;6.970;2022-08-19T13:41:48;27.00;99.90
52203;DHT22;38173;52.850;6.970;2022-08-19T13:44:17;26.90;99.90
52203;DHT22;38173;52.850;6.970;2022-08-19T13:46:47;26.80;99.90
52203;DHT22;38173;52.850;6.970;2022-08-19T13:49:14;26.80;99.90
52203;DHT22;38173;52.850;6.970;2022-08-19T13:51:42;26.90;99.90
52203;DHT22;38173;52.850;6.970;2022-08-19T13:54:09;26.90;99.90
52203;DHT22;38173;52.850;6.970;2022-08-19T13:56:44;27.10;99.90
52203;DHT22;38173;52.850;6.970;2022-08-19T13:59:10;27.20;99.90
52203;DHT22;38173;52.850;6.970;2022-08-19T14:01:37;27.40;99.90
52203;DHT22;38173;52.850;6.970;2022-08-19T14:04:03;27.60;99.90
52203;DHT22;38173;52.850;6.970;2022-08-19T14:06:29;27.60;99.90
52203;DHT22;38173;52.850;6.970;2022-08-19T14:08:55;27.70;99.90
52203;DHT22;38173;52.850;6.970;2022-08-19T14:11:21;27.60;99.90
52203;DHT22;38173;52.850;6.970;2022-08-19T14:13:48;27.70;99.90
52203;DHT22;38173;52.850;6.970;2022-08-19T14:16:15;27.50;99.00
52203;DHT22;38173;52.850;6.970;2022-08-19T14:18:41;27.40;99.90
52203;DHT22;38173;52.850;6.970;2022-08-19T14:21:08;27.30;99.90
52203;DHT22;38173;52.850;6.970;2022-08-19T14:23:39;27.30;99.90
52203;DHT22;38173;52.850;6.970;2022-08-19T14:26:08;27.20;99.90
52203;DHT22;38173;52.850;6.970;2022-08-19T14:28:34;27.30;99.90
52203;DHT22;38173;52.850;6.970;2022-08-19T14:30:59;27.20;99.90
52203;DHT22;38173;52.850;6.970;2022-08-19T14:33:25;27.20;99.80
52203;DHT22;38173;52.850;6.970;2022-08-19T14:35:51;27.20;99.90
52203;DHT22;38173;52.850;6.970;2022-08-19T14:38:18;27.20;99.90
52203;DHT22;38173;52.850;6.970;2022-08-19T14:40:44;27.20;99.90
52203;DHT22;38173;52.850;6.970;2022-08-19T14:43:11;27.20;99.90
52203;DHT22;38173;52.850;6.970;2022-08-19T14:45:39;27.10;99.90
52203;DHT22;38173;52.850;6.970;2022-08-19T14:48:06;27.00;99.90
52203;DHT22;38173;52.850;6.970;2022-08-19T14:50:33;26.90;99.90
52203;DHT22;38173;52.850;6.970;2022-08-19T14:53:01;26.90;99.70
52203;DHT22;38173;52.850;6.970;2022-08-19T14:55:30;27.00;99.20
52203;DHT22;38173;52.850;6.970;2022-08-19T14:57:57;27.20;99.90
52203;DHT22;38173;52.850;6.970;2022-08-19T15:00:23;27.30;98.10
52203;DHT22;38173;52.850;6.970;2022-08-19T15:02:50;27.40;99.60
52203;DHT22;38173;52.850;6.970;2022-08-19T15:05:16;27.50;99.90
52203;DHT22;38173;52.850;6.970;2022-08-19T15:07:42;27.40;99.90
52203;DHT22;38173;52.850;6.970;2022-08-19T15:10:09;27.40;99.90
52203;DHT22;38173;52.850;6.970;2022-08-19T15:12:37;27.40;97.50
52203;DHT22;38173;52.850;6.970;2022-08-19T15:15:07;27.20;99.90
52203;DHT22;38173;52.850;6.970;2022-08-19T15:17:35;27.00;99.90
52203;DHT22;38173;52.850;6.970;2022-08-19T15:20:03;26.90;99.90
52203;DHT22;38173;52.850;6.970;2022-08-19T15:22:33;26.80;99.90
52203;DHT22;38173;52.850;6.970;2022-08-19T15:25:01;26.70;99.90
52203;DHT22;38173;52.850;6.970;2022-08-19T15:27:26;26.60;99.90
52203;DHT22;38173;52.850;6.970;2022-08-19T15:29:52;26.50;99.90
52203;DHT22;38173;52.850;6.970;2022-08-19T15:32:18;26.50;99.90
52203;DHT22;38173;52.850;6.970;2022-08-19T15:34:44;26.40;99.90
52203;DHT22;38173;52.850;6.970;2022-08-19T15:37:14;26.30;99.90
52203;DHT22;38173;52.850;6.970;2022-08-19T15:39:39;26.20;99.90
52203;DHT22;38173;52.850;6.970;2022-08-19T15:42:05;26.20;99.90
52203;DHT22;38173;52.850;6.970;2022-08-19T15:44:31;26.10;99.90
52203;DHT22;38173;52.850;6.970;2022-08-19T15:46:58;26.10;99.90
52203;DHT22;38173;52.850;6.970;2022-08-19T15:49:24;26.10;99.90
52203;DHT22;38173;52.850;6.970;2022-08-19T15:51:50;26.10;99.90